Airfield :
LOGIN :

Register | Disclaimer

   EN    FR    IT 

 










Legend :    VFR   Marginal VFR   IFR   Intensive IFR   Very Intensive IFR
Visi :
Ceiling :
>= 8 km
>= 3000ft
5 to 8 km
1000 to 3000 ft
1500m to 5 km
500 to 1000 ft
800 to 1500m
200 to 500 ft
< 800m
< 200 ft
Symbols :   Thunderstorms  Fog  Heavy snow  Heavy precipitations  Wind > 20 kt
SIGMETs :     Misc.  Thunderstorms  Icing  Turbulence  Mountain Waves  Volcanic Ashes







- Airport Elevation : 499 ft
- IATA code : TLS
- Download approach charts


LFBO - Toulouse / Blagnac

CURRENT METAR :
  • 180800Z AUTO 27008KT CAVOK 19/13 Q1023 NOSIG

EXPIRED METARs :
  • 180730Z AUTO 28008KT 240V310 9999 FEW034 SCT070 18/12 Q1023 NOSIG
  • 180700Z AUTO 29009KT 9999 FEW026 BKN035 17/13 Q1023 NOSIG
  • 180630Z AUTO 28010KT 9999 OVC029 17/12 Q1023 NOSIG
  • 180600Z AUTO 27011KT 9999 BKN027 OVC036 16/12 Q1023 NOSIG
  • 180530Z AUTO 27011KT 9999 BKN031 BKN038 OVC044 16/12 Q1023 NOSIG
  • 180500Z AUTO 27010KT 9999 BKN028 BKN035 OVC045 16/12 Q1023 NOSIG

TAF TAF LFBO
Valid from the 18 at 06:00 until the 19 at 12:00 UTC


180500Z 1806/1912 26006KT 9999 BKN027
BECMG 1810/1812 CAVOK
ATIS : +33 5 62 74 66 36
No reported NOTAMs for that airfield.



MET'MAP, your aeronautical weather chart ! - Copyright ORBIFLY December 2007 - Disclaimer

ORBIFLY MET'MAP TEAM :

Programming & Development : Alexandra Zaïnal
Concept & Development : Baudouin d'Aumeries
Co-Development & Prog : Marc-Olivier Méhu
Technical & hardware support : Manuel Goepfert

Contact : metmap@orbifly.com




SOURCES & CREDITS :

   NOAA